sensor_id;sensor_type;location;lat;lon;timestamp;P1;durP1;ratioP1;P2;durP2;ratioP2
34805;SDS011;65084;42.196;25.326;2023-08-08T00:01:21;0.50;;;0.50;;
34805;SDS011;65084;42.196;25.326;2023-08-08T00:03:49;14.45;;;0.95;;
34805;SDS011;65084;42.196;25.326;2023-08-08T00:06:17;0.88;;;0.70;;
34805;SDS011;65084;42.196;25.326;2023-08-08T00:08:44;0.85;;;0.82;;
34805;SDS011;65084;42.196;25.326;2023-08-08T00:11:12;2.25;;;0.80;;
34805;SDS011;65084;42.196;25.326;2023-08-08T00:13:40;1.42;;;0.65;;
34805;SDS011;65084;42.196;25.326;2023-08-08T00:16:08;0.70;;;0.70;;
34805;SDS011;65084;42.196;25.326;2023-08-08T00:18:35;0.88;;;0.88;;
34805;SDS011;65084;42.196;25.326;2023-08-08T00:21:02;0.50;;;0.50;;
34805;SDS011;65084;42.196;25.326;2023-08-08T00:23:29;1.33;;;0.90;;
34805;SDS011;65084;42.196;25.326;2023-08-08T00:25:57;1.77;;;0.90;;
34805;SDS011;65084;42.196;25.326;2023-08-08T00:28:24;0.77;;;0.77;;
34805;SDS011;65084;42.196;25.326;2023-08-08T00:30:53;0.82;;;0.82;;
34805;SDS011;65084;42.196;25.326;2023-08-08T00:33:20;0.65;;;0.65;;
34805;SDS011;65084;42.196;25.326;2023-08-08T00:35:47;0.88;;;0.88;;
34805;SDS011;65084;42.196;25.326;2023-08-08T00:38:14;0.70;;;0.70;;
34805;SDS011;65084;42.196;25.326;2023-08-08T00:40:43;0.90;;;0.80;;
34805;SDS011;65084;42.196;25.326;2023-08-08T00:43:11;0.70;;;0.55;;
34805;SDS011;65084;42.196;25.326;2023-08-08T00:45:38;1.38;;;0.70;;
34805;SDS011;65084;42.196;25.326;2023-08-08T00:48:09;1.70;;;0.63;;
34805;SDS011;65084;42.196;25.326;2023-08-08T00:50:36;0.70;;;0.70;;
34805;SDS011;65084;42.196;25.326;2023-08-08T00:53:03;0.68;;;0.68;;
34805;SDS011;65084;42.196;25.326;2023-08-08T00:55:31;3.08;;;0.68;;
34805;SDS011;65084;42.196;25.326;2023-08-08T00:57:59;0.60;;;0.60;;
34805;SDS011;65084;42.196;25.326;2023-08-08T01:00:26;0.68;;;0.68;;
34805;SDS011;65084;42.196;25.326;2023-08-08T01:02:53;2.55;;;0.95;;
34805;SDS011;65084;42.196;25.326;2023-08-08T01:05:22;1.17;;;1.00;;
34805;SDS011;65084;42.196;25.326;2023-08-08T01:07:52;1.80;;;1.48;;
34805;SDS011;65084;42.196;25.326;2023-08-08T01:10:22;1.98;;;1.50;;
34805;SDS011;65084;42.196;25.326;2023-08-08T01:12:51;3.67;;;1.60;;
34805;SDS011;65084;42.196;25.326;2023-08-08T01:15:20;6.22;;;1.60;;
34805;SDS011;65084;42.196;25.326;2023-08-08T01:17:47;2.30;;;1.75;;
34805;SDS011;65084;42.196;25.326;2023-08-08T01:20:15;2.42;;;1.85;;
34805;SDS011;65084;42.196;25.326;2023-08-08T01:22:45;4.72;;;1.88;;
34805;SDS011;65084;42.196;25.326;2023-08-08T01:25:16;2.80;;;2.10;;
34805;SDS011;65084;42.196;25.326;2023-08-08T01:27:44;2.50;;;2.30;;
34805;SDS011;65084;42.196;25.326;2023-08-08T01:30:12;2.78;;;1.95;;
34805;SDS011;65084;42.196;25.326;2023-08-08T01:32:40;2.45;;;2.25;;
34805;SDS011;65084;42.196;25.326;2023-08-08T01:35:07;2.17;;;1.80;;
34805;SDS011;65084;42.196;25.326;2023-08-08T01:37:36;3.33;;;1.85;;
34805;SDS011;65084;42.196;25.326;2023-08-08T01:40:06;2.47;;;2.17;;
34805;SDS011;65084;42.196;25.326;2023-08-08T01:42:37;2.63;;;2.22;;
34805;SDS011;65084;42.196;25.326;2023-08-08T01:45:04;6.50;;;2.42;;
34805;SDS011;65084;42.196;25.326;2023-08-08T01:47:33;3.13;;;2.13;;
34805;SDS011;65084;42.196;25.326;2023-08-08T01:50:00;6.07;;;1.90;;
34805;SDS011;65084;42.196;25.326;2023-08-08T01:52:28;3.20;;;2.15;;
34805;SDS011;65084;42.196;25.326;2023-08-08T01:54:55;2.03;;;1.83;;
34805;SDS011;65084;42.196;25.326;2023-08-08T01:57:22;2.63;;;2.10;;
34805;SDS011;65084;42.196;25.326;2023-08-08T01:59:51;2.33;;;1.92;;
34805;SDS011;65084;42.196;25.326;2023-08-08T02:02:18;8.63;;;2.03;;
34805;SDS011;65084;42.196;25.326;2023-08-08T02:04:46;2.78;;;2.42;;
34805;SDS011;65084;42.196;25.326;2023-08-08T02:07:13;6.32;;;2.10;;
34805;SDS011;65084;42.196;25.326;2023-08-08T02:09:41;2.38;;;1.80;;
34805;SDS011;65084;42.196;25.326;2023-08-08T02:12:10;3.33;;;1.98;;
34805;SDS011;65084;42.196;25.326;2023-08-08T02:14:38;4.45;;;1.83;;
34805;SDS011;65084;42.196;25.326;2023-08-08T02:17:06;2.08;;;1.60;;
34805;SDS011;65084;42.196;25.326;2023-08-08T02:19:34;11.90;;;1.95;;
34805;SDS011;65084;42.196;25.326;2023-08-08T02:22:01;3.17;;;1.90;;
34805;SDS011;65084;42.196;25.326;2023-08-08T02:24:28;4.25;;;2.20;;
34805;SDS011;65084;42.196;25.326;2023-08-08T02:26:56;2.00;;;1.80;;
34805;SDS011;65084;42.196;25.326;2023-08-08T02:29:23;3.33;;;1.70;;
34805;SDS011;65084;42.196;25.326;2023-08-08T02:31:50;2.22;;;1.77;;
34805;SDS011;65084;42.196;25.326;2023-08-08T02:34:19;2.10;;;1.83;;
34805;SDS011;65084;42.196;25.326;2023-08-08T02:36:46;3.17;;;1.80;;
34805;SDS011;65084;42.196;25.326;2023-08-08T02:39:13;2.65;;;1.88;;
34805;SDS011;65084;42.196;25.326;2023-08-08T02:41:41;3.55;;;1.75;;
34805;SDS011;65084;42.196;25.326;2023-08-08T02:44:10;3.35;;;2.20;;
34805;SDS011;65084;42.196;25.326;2023-08-08T02:46:37;28.05;;;2.97;;
34805;SDS011;65084;42.196;25.326;2023-08-08T02:49:05;25.90;;;2.65;;
34805;SDS011;65084;42.196;25.326;2023-08-08T02:51:33;8.10;;;2.17;;
34805;SDS011;65084;42.196;25.326;2023-08-08T02:54:00;6.28;;;2.50;;
34805;SDS011;65084;42.196;25.326;2023-08-08T02:56:28;2.42;;;1.67;;
34805;SDS011;65084;42.196;25.326;2023-08-08T02:58:55;2.75;;;1.50;;
34805;SDS011;65084;42.196;25.326;2023-08-08T03:01:23;3.63;;;1.77;;
34805;SDS011;65084;42.196;25.326;2023-08-08T03:03:50;2.15;;;1.55;;
34805;SDS011;65084;42.196;25.326;2023-08-08T03:06:17;4.00;;;1.40;;
34805;SDS011;65084;42.196;25.326;2023-08-08T03:08:46;3.10;;;1.40;;
34805;SDS011;65084;42.196;25.326;2023-08-08T03:11:13;1.55;;;1.13;;
34805;SDS011;65084;42.196;25.326;2023-08-08T03:13:41;9.63;;;0.85;;
34805;SDS011;65084;42.196;25.326;2023-08-08T03:16:08;3.58;;;0.60;;
34805;SDS011;65084;42.196;25.326;2023-08-08T03:18:35;0.65;;;0.65;;
34805;SDS011;65084;42.196;25.326;2023-08-08T03:21:02;2.13;;;0.77;;
34805;SDS011;65084;42.196;25.326;2023-08-08T03:23:30;3.95;;;1.00;;
34805;SDS011;65084;42.196;25.326;2023-08-08T03:25:58;11.48;;;1.23;;
34805;SDS011;65084;42.196;25.326;2023-08-08T03:28:26;1.40;;;0.70;;
34805;SDS011;65084;42.196;25.326;2023-08-08T03:30:53;0.95;;;0.85;;
34805;SDS011;65084;42.196;25.326;2023-08-08T03:33:20;0.85;;;0.80;;
34805;SDS011;65084;42.196;25.326;2023-08-08T03:35:47;1.08;;;0.70;;
34805;SDS011;65084;42.196;25.326;2023-08-08T03:38:15;1.10;;;1.00;;
34805;SDS011;65084;42.196;25.326;2023-08-08T03:40:42;3.50;;;0.77;;
34805;SDS011;65084;42.196;25.326;2023-08-08T03:43:11;1.75;;;1.00;;
34805;SDS011;65084;42.196;25.326;2023-08-08T03:45:38;1.13;;;1.00;;
34805;SDS011;65084;42.196;25.326;2023-08-08T03:48:06;1.35;;;1.00;;
34805;SDS011;65084;42.196;25.326;2023-08-08T03:50:33;0.70;;;0.70;;
34805;SDS011;65084;42.196;25.326;2023-08-08T03:53:01;1.05;;;0.70;;
34805;SDS011;65084;42.196;25.326;2023-08-08T03:55:28;0.75;;;0.75;;
34805;SDS011;65084;42.196;25.326;2023-08-08T03:57:55;4.45;;;0.88;;
34805;SDS011;65084;42.196;25.326;2023-08-08T04:00:24;1.10;;;0.70;;
34805;SDS011;65084;42.196;25.326;2023-08-08T04:02:51;1.33;;;0.60;;
34805;SDS011;65084;42.196;25.326;2023-08-08T04:05:18;0.70;;;0.70;;
34805;SDS011;65084;42.196;25.326;2023-08-08T04:07:46;2.80;;;0.88;;
34805;SDS011;65084;42.196;25.326;2023-08-08T04:10:13;4.10;;;0.68;;
34805;SDS011;65084;42.196;25.326;2023-08-08T04:12:40;2.65;;;0.80;;
34805;SDS011;65084;42.196;25.326;2023-08-08T04:15:08;1.38;;;0.85;;
34805;SDS011;65084;42.196;25.326;2023-08-08T04:17:37;1.25;;;0.90;;
34805;SDS011;65084;42.196;25.326;2023-08-08T04:20:05;0.85;;;0.80;;
34805;SDS011;65084;42.196;25.326;2023-08-08T04:22:32;2.10;;;0.90;;
34805;SDS011;65084;42.196;25.326;2023-08-08T04:25:00;0.75;;;0.55;;
34805;SDS011;65084;42.196;25.326;2023-08-08T04:27:28;6.05;;;0.90;;
34805;SDS011;65084;42.196;25.326;2023-08-08T04:29:55;1.02;;;0.90;;
34805;SDS011;65084;42.196;25.326;2023-08-08T04:32:22;1.42;;;0.90;;
34805;SDS011;65084;42.196;25.326;2023-08-08T04:34:51;1.27;;;1.17;;
34805;SDS011;65084;42.196;25.326;2023-08-08T04:37:18;1.73;;;1.08;;
34805;SDS011;65084;42.196;25.326;2023-08-08T04:39:46;3.17;;;1.17;;
34805;SDS011;65084;42.196;25.326;2023-08-08T04:42:13;4.88;;;1.38;;
34805;SDS011;65084;42.196;25.326;2023-08-08T04:44:40;2.15;;;1.10;;
34805;SDS011;65084;42.196;25.326;2023-08-08T04:47:07;4.03;;;1.60;;
34805;SDS011;65084;42.196;25.326;2023-08-08T04:49:35;5.25;;;1.30;;
34805;SDS011;65084;42.196;25.326;2023-08-08T04:52:04;1.30;;;1.00;;
34805;SDS011;65084;42.196;25.326;2023-08-08T04:54:31;1.70;;;0.80;;
34805;SDS011;65084;42.196;25.326;2023-08-08T04:56:58;1.17;;;1.13;;
34805;SDS011;65084;42.196;25.326;2023-08-08T04:59:26;1.00;;;0.90;;
34805;SDS011;65084;42.196;25.326;2023-08-08T05:01:53;1.58;;;0.90;;
34805;SDS011;65084;42.196;25.326;2023-08-08T05:04:20;1.92;;;0.73;;
34805;SDS011;65084;42.196;25.326;2023-08-08T05:06:47;1.58;;;0.98;;
34805;SDS011;65084;42.196;25.326;2023-08-08T05:09:16;1.40;;;1.10;;
34805;SDS011;65084;42.196;25.326;2023-08-08T05:11:45;3.33;;;1.23;;
34805;SDS011;65084;42.196;25.326;2023-08-08T05:14:13;1.63;;;1.05;;
34805;SDS011;65084;42.196;25.326;2023-08-08T05:16:40;1.52;;;1.40;;
34805;SDS011;65084;42.196;25.326;2023-08-08T05:19:07;1.48;;;1.00;;
34805;SDS011;65084;42.196;25.326;2023-08-08T05:21:34;3.08;;;1.33;;
34805;SDS011;65084;42.196;25.326;2023-08-08T05:24:02;1.75;;;1.40;;
34805;SDS011;65084;42.196;25.326;2023-08-08T05:26:31;1.45;;;1.02;;
34805;SDS011;65084;42.196;25.326;2023-08-08T05:28:59;6.47;;;1.40;;
34805;SDS011;65084;42.196;25.326;2023-08-08T05:31:26;2.95;;;1.27;;
34805;SDS011;65084;42.196;25.326;2023-08-08T05:33:53;2.15;;;1.20;;
34805;SDS011;65084;42.196;25.326;2023-08-08T05:36:20;5.13;;;1.55;;
34805;SDS011;65084;42.196;25.326;2023-08-08T05:38:48;4.03;;;0.93;;
34805;SDS011;65084;42.196;25.326;2023-08-08T05:41:16;3.25;;;0.90;;
34805;SDS011;65084;42.196;25.326;2023-08-08T05:43:44;1.52;;;1.00;;
34805;SDS011;65084;42.196;25.326;2023-08-08T05:46:12;10.40;;;1.60;;
34805;SDS011;65084;42.196;25.326;2023-08-08T05:48:39;1.33;;;1.23;;
34805;SDS011;65084;42.196;25.326;2023-08-08T05:51:06;1.55;;;1.40;;
34805;SDS011;65084;42.196;25.326;2023-08-08T05:53:33;2.15;;;1.20;;
34805;SDS011;65084;42.196;25.326;2023-08-08T05:56:02;6.75;;;1.30;;
34805;SDS011;65084;42.196;25.326;2023-08-08T05:58:29;3.95;;;1.30;;
34805;SDS011;65084;42.196;25.326;2023-08-08T06:00:58;3.13;;;1.52;;
34805;SDS011;65084;42.196;25.326;2023-08-08T06:03:25;6.05;;;1.58;;
34805;SDS011;65084;42.196;25.326;2023-08-08T06:05:52;2.58;;;1.45;;
34805;SDS011;65084;42.196;25.326;2023-08-08T06:08:21;2.72;;;1.60;;
34805;SDS011;65084;42.196;25.326;2023-08-08T06:10:48;2.17;;;1.40;;
34805;SDS011;65084;42.196;25.326;2023-08-08T06:13:15;6.45;;;1.85;;
34805;SDS011;65084;42.196;25.326;2023-08-08T06:15:43;4.72;;;1.70;;
34805;SDS011;65084;42.196;25.326;2023-08-08T06:18:11;4.03;;;1.70;;
34805;SDS011;65084;42.196;25.326;2023-08-08T06:20:38;5.93;;;1.88;;
34805;SDS011;65084;42.196;25.326;2023-08-08T06:23:06;4.00;;;2.13;;
34805;SDS011;65084;42.196;25.326;2023-08-08T06:25:33;5.47;;;2.10;;
34805;SDS011;65084;42.196;25.326;2023-08-08T06:28:00;2.42;;;2.00;;
34805;SDS011;65084;42.196;25.326;2023-08-08T06:30:28;3.35;;;2.65;;
34805;SDS011;65084;42.196;25.326;2023-08-08T06:32:55;2.55;;;2.13;;
34805;SDS011;65084;42.196;25.326;2023-08-08T06:35:24;4.75;;;2.47;;
34805;SDS011;65084;42.196;25.326;2023-08-08T06:37:51;3.70;;;2.47;;
34805;SDS011;65084;42.196;25.326;2023-08-08T06:40:18;4.78;;;2.33;;
34805;SDS011;65084;42.196;25.326;2023-08-08T06:42:46;3.38;;;1.95;;
34805;SDS011;65084;42.196;25.326;2023-08-08T06:45:13;12.20;;;2.03;;
34805;SDS011;65084;42.196;25.326;2023-08-08T06:47:41;1.98;;;1.65;;
34805;SDS011;65084;42.196;25.326;2023-08-08T06:50:08;2.85;;;2.00;;
34805;SDS011;65084;42.196;25.326;2023-08-08T06:52:37;2.40;;;2.20;;
34805;SDS011;65084;42.196;25.326;2023-08-08T06:55:05;16.77;;;3.78;;
34805;SDS011;65084;42.196;25.326;2023-08-08T06:57:32;4.82;;;3.97;;
34805;SDS011;65084;42.196;25.326;2023-08-08T07:00:00;3.70;;;3.28;;
34805;SDS011;65084;42.196;25.326;2023-08-08T07:02:30;4.55;;;2.08;;
34805;SDS011;65084;42.196;25.326;2023-08-08T07:04:57;4.35;;;2.30;;
34805;SDS011;65084;42.196;25.326;2023-08-08T07:07:25;6.70;;;2.42;;
34805;SDS011;65084;42.196;25.326;2023-08-08T07:09:55;4.50;;;3.25;;
34805;SDS011;65084;42.196;25.326;2023-08-08T07:12:22;4.15;;;2.25;;
34805;SDS011;65084;42.196;25.326;2023-08-08T07:14:50;3.25;;;2.65;;
34805;SDS011;65084;42.196;25.326;2023-08-08T07:17:17;6.75;;;2.92;;
34805;SDS011;65084;42.196;25.326;2023-08-08T07:19:44;4.72;;;3.03;;
34805;SDS011;65084;42.196;25.326;2023-08-08T07:22:12;3.72;;;2.42;;
34805;SDS011;65084;42.196;25.326;2023-08-08T07:24:39;3.42;;;2.63;;
34805;SDS011;65084;42.196;25.326;2023-08-08T07:27:08;3.88;;;2.65;;
34805;SDS011;65084;42.196;25.326;2023-08-08T07:29:35;3.42;;;2.67;;
34805;SDS011;65084;42.196;25.326;2023-08-08T07:32:02;6.72;;;3.30;;
34805;SDS011;65084;42.196;25.326;2023-08-08T07:34:30;2.85;;;2.65;;
34805;SDS011;65084;42.196;25.326;2023-08-08T07:36:58;5.18;;;3.05;;
34805;SDS011;65084;42.196;25.326;2023-08-08T07:39:25;2.85;;;2.58;;
34805;SDS011;65084;42.196;25.326;2023-08-08T07:41:52;3.22;;;2.95;;
34805;SDS011;65084;42.196;25.326;2023-08-08T07:44:21;3.67;;;2.47;;
34805;SDS011;65084;42.196;25.326;2023-08-08T07:46:48;3.90;;;2.60;;
34805;SDS011;65084;42.196;25.326;2023-08-08T07:49:16;4.15;;;2.92;;
34805;SDS011;65084;42.196;25.326;2023-08-08T07:51:43;3.00;;;2.63;;
34805;SDS011;65084;42.196;25.326;2023-08-08T07:54:10;3.28;;;2.97;;
34805;SDS011;65084;42.196;25.326;2023-08-08T07:56:38;6.15;;;3.15;;
34805;SDS011;65084;42.196;25.326;2023-08-08T07:59:05;4.25;;;3.85;;
34805;SDS011;65084;42.196;25.326;2023-08-08T08:01:34;5.25;;;2.95;;
34805;SDS011;65084;42.196;25.326;2023-08-08T08:04:02;4.22;;;2.97;;
34805;SDS011;65084;42.196;25.326;2023-08-08T08:06:32;10.38;;;4.15;;
34805;SDS011;65084;42.196;25.326;2023-08-08T08:09:00;3.75;;;3.33;;
34805;SDS011;65084;42.196;25.326;2023-08-08T08:11:28;3.45;;;3.25;;
34805;SDS011;65084;42.196;25.326;2023-08-08T08:13:56;3.50;;;3.20;;
34805;SDS011;65084;42.196;25.326;2023-08-08T08:16:23;3.63;;;3.38;;
34805;SDS011;65084;42.196;25.326;2023-08-08T08:18:52;5.53;;;3.47;;
34805;SDS011;65084;42.196;25.326;2023-08-08T08:21:19;4.00;;;3.60;;
34805;SDS011;65084;42.196;25.326;2023-08-08T08:23:46;3.28;;;3.05;;
34805;SDS011;65084;42.196;25.326;2023-08-08T08:26:14;3.97;;;3.38;;
34805;SDS011;65084;42.196;25.326;2023-08-08T08:28:41;5.03;;;3.30;;
34805;SDS011;65084;42.196;25.326;2023-08-08T08:31:08;3.25;;;2.95;;
34805;SDS011;65084;42.196;25.326;2023-08-08T08:33:35;3.60;;;3.30;;
34805;SDS011;65084;42.196;25.326;2023-08-08T08:36:04;4.13;;;3.78;;
34805;SDS011;65084;42.196;25.326;2023-08-08T08:38:32;4.47;;;3.40;;
34805;SDS011;65084;42.196;25.326;2023-08-08T08:40:59;6.03;;;3.40;;
34805;SDS011;65084;42.196;25.326;2023-08-08T08:43:26;3.42;;;2.90;;
34805;SDS011;65084;42.196;25.326;2023-08-08T08:45:54;3.55;;;3.35;;
34805;SDS011;65084;42.196;25.326;2023-08-08T08:48:22;3.60;;;3.28;;
34805;SDS011;65084;42.196;25.326;2023-08-08T08:50:49;4.53;;;3.50;;
34805;SDS011;65084;42.196;25.326;2023-08-08T08:53:19;3.63;;;3.33;;
34805;SDS011;65084;42.196;25.326;2023-08-08T08:55:47;4.25;;;2.97;;
34805;SDS011;65084;42.196;25.326;2023-08-08T08:58:15;3.85;;;3.10;;
34805;SDS011;65084;42.196;25.326;2023-08-08T09:00:43;4.32;;;3.15;;
34805;SDS011;65084;42.196;25.326;2023-08-08T09:03:11;3.30;;;3.00;;
34805;SDS011;65084;42.196;25.326;2023-08-08T09:05:39;5.18;;;3.55;;
34805;SDS011;65084;42.196;25.326;2023-08-08T09:08:07;3.63;;;3.33;;
34805;SDS011;65084;42.196;25.326;2023-08-08T09:10:36;3.80;;;3.50;;
34805;SDS011;65084;42.196;25.326;2023-08-08T09:13:03;4.30;;;3.92;;
34805;SDS011;65084;42.196;25.326;2023-08-08T09:15:31;5.07;;;4.30;;
34805;SDS011;65084;42.196;25.326;2023-08-08T09:17:58;5.20;;;3.45;;
34805;SDS011;65084;42.196;25.326;2023-08-08T09:20:26;3.72;;;3.42;;
34805;SDS011;65084;42.196;25.326;2023-08-08T09:22:53;3.45;;;3.25;;
34805;SDS011;65084;42.196;25.326;2023-08-08T09:25:20;5.50;;;3.50;;
34805;SDS011;65084;42.196;25.326;2023-08-08T09:27:50;12.10;;;4.20;;
34805;SDS011;65084;42.196;25.326;2023-08-08T09:30:18;3.17;;;2.97;;
34805;SDS011;65084;42.196;25.326;2023-08-08T09:32:45;3.05;;;2.78;;
34805;SDS011;65084;42.196;25.326;2023-08-08T09:35:13;2.80;;;2.60;;
34805;SDS011;65084;42.196;25.326;2023-08-08T09:37:40;8.18;;;2.53;;
34805;SDS011;65084;42.196;25.326;2023-08-08T09:40:08;4.20;;;2.30;;
34805;SDS011;65084;42.196;25.326;2023-08-08T09:42:37;2.38;;;2.17;;
34805;SDS011;65084;42.196;25.326;2023-08-08T09:45:07;2.30;;;2.10;;
34805;SDS011;65084;42.196;25.326;2023-08-08T09:47:35;1.77;;;1.67;;
34805;SDS011;65084;42.196;25.326;2023-08-08T09:50:02;2.20;;;2.00;;
34805;SDS011;65084;42.196;25.326;2023-08-08T09:52:30;2.00;;;1.90;;
34805;SDS011;65084;42.196;25.326;2023-08-08T09:54:58;2.42;;;2.22;;
34805;SDS011;65084;42.196;25.326;2023-08-08T09:57:25;5.43;;;2.63;;
34805;SDS011;65084;42.196;25.326;2023-08-08T09:59:53;2.78;;;2.58;;
34805;SDS011;65084;42.196;25.326;2023-08-08T10:02:22;2.20;;;2.00;;
34805;SDS011;65084;42.196;25.326;2023-08-08T10:04:50;1.92;;;1.83;;
34805;SDS011;65084;42.196;25.326;2023-08-08T10:07:17;2.10;;;1.50;;
34805;SDS011;65084;42.196;25.326;2023-08-08T10:09:45;2.05;;;1.95;;
34805;SDS011;65084;42.196;25.326;2023-08-08T10:12:12;1.85;;;1.75;;
34805;SDS011;65084;42.196;25.326;2023-08-08T10:14:41;4.00;;;2.00;;
34805;SDS011;65084;42.196;25.326;2023-08-08T10:17:12;2.13;;;1.65;;
34805;SDS011;65084;42.196;25.326;2023-08-08T10:19:41;1.80;;;1.70;;
34805;SDS011;65084;42.196;25.326;2023-08-08T10:22:19;1.80;;;1.70;;
34805;SDS011;65084;42.196;25.326;2023-08-08T10:24:47;1.45;;;1.42;;
34805;SDS011;65084;42.196;25.326;2023-08-08T10:27:15;2.05;;;1.70;;
34805;SDS011;65084;42.196;25.326;2023-08-08T10:29:53;1.58;;;1.48;;
34805;SDS011;65084;42.196;25.326;2023-08-08T10:32:22;1.80;;;1.70;;
34805;SDS011;65084;42.196;25.326;2023-08-08T10:34:54;2.33;;;1.88;;
34805;SDS011;65084;42.196;25.326;2023-08-08T10:37:22;1.80;;;1.70;;
34805;SDS011;65084;42.196;25.326;2023-08-08T10:39:52;3.50;;;2.40;;
34805;SDS011;65084;42.196;25.326;2023-08-08T10:42:20;2.22;;;2.13;;
34805;SDS011;65084;42.196;25.326;2023-08-08T10:44:50;7.40;;;2.45;;
34805;SDS011;65084;42.196;25.326;2023-08-08T10:47:21;3.65;;;2.00;;
34805;SDS011;65084;42.196;25.326;2023-08-08T10:49:57;2.58;;;2.47;;
34805;SDS011;65084;42.196;25.326;2023-08-08T10:52:24;2.45;;;2.25;;
34805;SDS011;65084;42.196;25.326;2023-08-08T10:54:52;2.53;;;1.98;;
34805;SDS011;65084;42.196;25.326;2023-08-08T10:57:20;1.85;;;1.75;;
34805;SDS011;65084;42.196;25.326;2023-08-08T10:59:47;1.88;;;1.75;;
34805;SDS011;65084;42.196;25.326;2023-08-08T11:02:14;1.85;;;1.75;;
34805;SDS011;65084;42.196;25.326;2023-08-08T11:04:42;4.15;;;1.60;;
34805;SDS011;65084;42.196;25.326;2023-08-08T11:07:11;2.05;;;1.77;;
34805;SDS011;65084;42.196;25.326;2023-08-08T11:09:38;2.38;;;1.67;;
34805;SDS011;65084;42.196;25.326;2023-08-08T11:12:12;1.77;;;1.67;;
34805;SDS011;65084;42.196;25.326;2023-08-08T11:14:40;3.80;;;1.65;;
34805;SDS011;65084;42.196;25.326;2023-08-08T11:17:07;1.90;;;1.80;;
34805;SDS011;65084;42.196;25.326;2023-08-08T11:19:38;1.85;;;1.75;;
34805;SDS011;65084;42.196;25.326;2023-08-08T11:22:08;1.70;;;1.60;;
34805;SDS011;65084;42.196;25.326;2023-08-08T11:24:38;5.47;;;1.80;;
34805;SDS011;65084;42.196;25.326;2023-08-08T11:27:05;1.92;;;1.58;;
34805;SDS011;65084;42.196;25.326;2023-08-08T11:29:32;1.77;;;1.67;;
34805;SDS011;65084;42.196;25.326;2023-08-08T11:32:00;2.42;;;1.60;;
34805;SDS011;65084;42.196;25.326;2023-08-08T11:34:30;2.42;;;1.70;;
34805;SDS011;65084;42.196;25.326;2023-08-08T11:36:58;1.70;;;1.60;;
34805;SDS011;65084;42.196;25.326;2023-08-08T11:39:26;3.40;;;1.70;;
34805;SDS011;65084;42.196;25.326;2023-08-08T11:41:55;1.52;;;1.42;;
34805;SDS011;65084;42.196;25.326;2023-08-08T11:44:22;1.55;;;1.30;;
34805;SDS011;65084;42.196;25.326;2023-08-08T11:46:49;1.23;;;1.17;;
34805;SDS011;65084;42.196;25.326;2023-08-08T11:49:17;1.63;;;1.52;;
34805;SDS011;65084;42.196;25.326;2023-08-08T11:51:45;3.20;;;1.48;;
34805;SDS011;65084;42.196;25.326;2023-08-08T11:54:12;1.95;;;1.55;;
34805;SDS011;65084;42.196;25.326;2023-08-08T11:56:40;1.48;;;1.38;;
34805;SDS011;65084;42.196;25.326;2023-08-08T11:59:09;4.57;;;1.40;;
34805;SDS011;65084;42.196;25.326;2023-08-08T12:01:37;1.40;;;1.30;;
34805;SDS011;65084;42.196;25.326;2023-08-08T12:04:05;1.48;;;1.38;;
34805;SDS011;65084;42.196;25.326;2023-08-08T12:06:32;1.90;;;1.80;;
34805;SDS011;65084;42.196;25.326;2023-08-08T12:09:00;5.45;;;1.50;;
34805;SDS011;65084;42.196;25.326;2023-08-08T12:11:28;5.03;;;1.70;;
34805;SDS011;65084;42.196;25.326;2023-08-08T12:13:58;3.50;;;1.80;;
34805;SDS011;65084;42.196;25.326;2023-08-08T12:16:28;3.35;;;1.48;;
34805;SDS011;65084;42.196;25.326;2023-08-08T12:18:56;5.03;;;1.70;;
34805;SDS011;65084;42.196;25.326;2023-08-08T12:21:23;2.42;;;1.58;;
34805;SDS011;65084;42.196;25.326;2023-08-08T12:23:50;1.55;;;1.45;;
34805;SDS011;65084;42.196;25.326;2023-08-08T12:26:18;1.33;;;1.23;;
34805;SDS011;65084;42.196;25.326;2023-08-08T12:28:45;1.23;;;1.23;;
34805;SDS011;65084;42.196;25.326;2023-08-08T12:31:12;1.50;;;1.40;;
34805;SDS011;65084;42.196;25.326;2023-08-08T12:33:41;1.40;;;1.30;;
34805;SDS011;65084;42.196;25.326;2023-08-08T12:36:08;3.15;;;1.40;;
34805;SDS011;65084;42.196;25.326;2023-08-08T12:38:36;1.38;;;1.33;;
34805;SDS011;65084;42.196;25.326;2023-08-08T12:41:03;1.75;;;1.50;;
34805;SDS011;65084;42.196;25.326;2023-08-08T12:43:30;1.65;;;1.48;;
34805;SDS011;65084;42.196;25.326;2023-08-08T12:45:59;2.15;;;1.85;;
34805;SDS011;65084;42.196;25.326;2023-08-08T12:48:26;1.70;;;1.60;;
34805;SDS011;65084;42.196;25.326;2023-08-08T12:50:55;3.22;;;1.65;;
34805;SDS011;65084;42.196;25.326;2023-08-08T12:53:22;1.55;;;1.45;;
34805;SDS011;65084;42.196;25.326;2023-08-08T12:55:50;1.60;;;1.50;;
34805;SDS011;65084;42.196;25.326;2023-08-08T12:58:17;2.35;;;1.40;;
34805;SDS011;65084;42.196;25.326;2023-08-08T13:00:44;1.77;;;1.67;;
34805;SDS011;65084;42.196;25.326;2023-08-08T13:03:12;1.42;;;1.23;;
34805;SDS011;65084;42.196;25.326;2023-08-08T13:05:39;1.58;;;1.48;;
34805;SDS011;65084;42.196;25.326;2023-08-08T13:08:08;4.13;;;1.40;;
34805;SDS011;65084;42.196;25.326;2023-08-08T13:10:35;3.05;;;1.88;;
34805;SDS011;65084;42.196;25.326;2023-08-08T13:13:03;2.05;;;1.85;;
34805;SDS011;65084;42.196;25.326;2023-08-08T13:15:30;1.80;;;1.70;;
34805;SDS011;65084;42.196;25.326;2023-08-08T13:17:57;6.00;;;1.52;;
34805;SDS011;65084;42.196;25.326;2023-08-08T13:20:25;2.17;;;1.60;;
34805;SDS011;65084;42.196;25.326;2023-08-08T13:22:52;1.42;;;1.33;;
34805;SDS011;65084;42.196;25.326;2023-08-08T13:25:21;1.35;;;1.25;;
34805;SDS011;65084;42.196;25.326;2023-08-08T13:27:48;1.63;;;1.45;;
34805;SDS011;65084;42.196;25.326;2023-08-08T13:30:15;2.38;;;1.80;;
34805;SDS011;65084;42.196;25.326;2023-08-08T13:32:43;7.30;;;1.80;;
34805;SDS011;65084;42.196;25.326;2023-08-08T13:35:10;1.80;;;1.70;;
34805;SDS011;65084;42.196;25.326;2023-08-08T13:37:37;2.42;;;1.63;;
34805;SDS011;65084;42.196;25.326;2023-08-08T13:40:05;2.55;;;1.83;;
34805;SDS011;65084;42.196;25.326;2023-08-08T13:42:34;1.67;;;1.58;;
34805;SDS011;65084;42.196;25.326;2023-08-08T13:45:01;1.83;;;1.58;;
34805;SDS011;65084;42.196;25.326;2023-08-08T13:47:29;4.63;;;1.75;;
34805;SDS011;65084;42.196;25.326;2023-08-08T13:49:56;1.73;;;1.52;;
34805;SDS011;65084;42.196;25.326;2023-08-08T13:52:23;1.60;;;1.50;;
34805;SDS011;65084;42.196;25.326;2023-08-08T13:54:51;1.33;;;1.30;;
34805;SDS011;65084;42.196;25.326;2023-08-08T13:57:19;3.65;;;1.88;;
34805;SDS011;65084;42.196;25.326;2023-08-08T13:59:48;1.60;;;1.50;;
34805;SDS011;65084;42.196;25.326;2023-08-08T14:02:15;1.60;;;1.50;;
34805;SDS011;65084;42.196;25.326;2023-08-08T14:04:43;1.70;;;1.60;;
34805;SDS011;65084;42.196;25.326;2023-08-08T14:07:10;1.75;;;1.55;;
34805;SDS011;65084;42.196;25.326;2023-08-08T14:09:37;2.80;;;1.65;;
34805;SDS011;65084;42.196;25.326;2023-08-08T14:12:05;6.47;;;1.65;;
34805;SDS011;65084;42.196;25.326;2023-08-08T14:14:32;1.30;;;1.20;;
34805;SDS011;65084;42.196;25.326;2023-08-08T14:17:01;1.52;;;1.42;;
34805;SDS011;65084;42.196;25.326;2023-08-08T14:19:28;1.30;;;1.20;;
34805;SDS011;65084;42.196;25.326;2023-08-08T14:21:55;1.17;;;1.17;;
34805;SDS011;65084;42.196;25.326;2023-08-08T14:24:23;1.40;;;1.30;;
34805;SDS011;65084;42.196;25.326;2023-08-08T14:26:50;1.38;;;1.30;;
34805;SDS011;65084;42.196;25.326;2023-08-08T14:29:17;1.67;;;1.58;;
34805;SDS011;65084;42.196;25.326;2023-08-08T14:31:44;2.30;;;1.42;;
34805;SDS011;65084;42.196;25.326;2023-08-08T14:34:14;1.48;;;1.38;;
34805;SDS011;65084;42.196;25.326;2023-08-08T14:36:41;4.30;;;1.48;;